createdAt,value
2024-05-09T14:20:46.012Z,53.65
2024-05-09T14:22:18.268Z,53.23
2024-05-09T14:23:50.462Z,53.56
2024-05-09T14:25:24.325Z,53.56
2024-05-09T14:26:56.095Z,53.74
2024-05-09T14:28:28.224Z,53.50
2024-05-09T14:29:59.950Z,53.63
2024-05-09T14:31:31.902Z,53.54
2024-05-09T14:33:04.019Z,53.74
2024-05-09T14:34:36.118Z,53.44
2024-05-09T14:36:08.007Z,53.85
2024-05-09T14:37:39.919Z,53.65
2024-05-09T14:39:11.899Z,53.63
2024-05-09T14:40:44.415Z,54.07
2024-05-09T14:42:16.599Z,53.69
2024-05-09T14:43:48.850Z,53.64
2024-05-09T14:45:20.812Z,53.73
2024-05-09T14:46:53.040Z,53.96
2024-05-09T14:48:24.850Z,54.10
2024-05-09T14:49:56.641Z,54.05
2024-05-09T14:51:28.381Z,54.08
2024-05-09T14:53:00.190Z,54.11
2024-05-09T14:54:31.982Z,53.85
2024-05-09T14:56:03.784Z,53.88
2024-05-09T14:57:35.555Z,54.41
2024-05-09T14:59:07.706Z,53.81
2024-05-09T15:00:44.851Z,54.17
2024-05-09T15:02:20.325Z,54.20
2024-05-09T15:03:53.840Z,54.07
2024-05-09T15:05:25.758Z,54.02
2024-05-09T15:06:59.442Z,54.09
2024-05-09T15:08:31.385Z,53.96
2024-05-09T15:10:11.588Z,53.75
2024-05-09T15:11:48.714Z,53.25
2024-05-09T15:13:20.983Z,53.12
2024-05-09T15:14:53.082Z,53.52
2024-05-09T15:16:25.532Z,53.12
2024-05-09T15:17:57.575Z,53.39
2024-05-09T15:19:29.547Z,52.78
2024-05-09T15:21:01.583Z,53.30
2024-05-09T15:22:33.479Z,53.15
2024-05-09T15:24:05.620Z,53.08
2024-05-09T15:25:37.371Z,52.46
2024-05-09T15:27:09.150Z,52.59
2024-05-09T15:28:41.265Z,53.03
2024-05-09T15:30:15.447Z,53.09
2024-05-09T15:31:47.435Z,53.01
2024-05-09T15:33:19.554Z,53.70
2024-05-09T15:34:51.385Z,53.66
2024-05-09T15:36:23.097Z,54.02
2024-05-09T15:37:54.924Z,53.37
2024-05-09T15:39:30.984Z,53.47
2024-05-09T15:41:02.960Z,53.96
2024-05-09T15:42:34.817Z,53.66
2024-05-09T15:44:06.679Z,53.91
2024-05-09T15:45:39.088Z,53.73
2024-05-09T15:47:11.451Z,53.39
2024-05-09T15:48:44.860Z,53.76
2024-05-09T15:50:23.491Z,53.69
2024-05-09T15:52:00.877Z,53.07
2024-05-09T15:53:33.027Z,53.03
2024-05-09T15:55:05.188Z,53.75
2024-05-09T15:56:37.335Z,53.39
2024-05-09T15:58:09.425Z,53.89
2024-05-09T15:59:41.174Z,53.51
2024-05-09T16:01:15.120Z,54.01
2024-05-09T16:02:47.069Z,53.86
2024-05-09T16:04:19.289Z,54.19
2024-05-09T16:05:52.141Z,54.27
2024-05-09T16:07:24.908Z,53.66
2024-05-09T16:08:56.692Z,53.74
2024-05-09T16:10:32.692Z,54.15
2024-05-09T16:12:06.279Z,53.80
2024-05-09T16:13:38.180Z,54.01
2024-05-09T16:15:09.925Z,54.27
2024-05-09T16:16:41.808Z,53.63
2024-05-09T16:18:13.733Z,53.82
2024-05-09T16:19:45.504Z,53.85
2024-05-09T16:21:17.293Z,53.56
2024-05-09T16:22:49.017Z,53.57
2024-05-09T16:24:20.776Z,53.65
2024-05-09T16:25:52.666Z,54.25
2024-05-09T16:27:24.396Z,54.30
2024-05-09T16:28:56.296Z,54.42
2024-05-09T16:30:34.210Z,54.01
2024-05-09T16:32:07.575Z,54.48
2024-05-09T16:33:40.563Z,54.29
2024-05-09T16:35:12.553Z,54.07
2024-05-09T16:36:44.330Z,54.26
2024-05-09T16:38:16.245Z,54.08
2024-05-09T16:39:47.944Z,53.79
2024-05-09T16:41:20.007Z,53.76
2024-05-09T16:42:51.782Z,54.38
2024-05-09T16:44:23.647Z,53.95
2024-05-09T16:45:55.794Z,54.17
2024-05-09T16:47:27.794Z,54.61
2024-05-09T16:48:59.734Z,54.73
2024-05-09T16:50:34.252Z,54.49
2024-05-09T16:52:07.332Z,54.30
2024-05-09T16:53:39.324Z,54.84
2024-05-09T16:55:11.155Z,54.96
2024-05-09T16:56:43.013Z,55.02
2024-05-09T16:58:15.000Z,54.86
2024-05-09T16:59:46.782Z,54.73
2024-05-09T17:01:18.852Z,54.98
2024-05-09T17:02:50.968Z,54.74
2024-05-09T17:04:22.750Z,54.83
2024-05-09T17:05:55.006Z,54.71
2024-05-09T17:07:26.859Z,55.01
2024-05-09T17:09:07.909Z,55.01
2024-05-09T17:10:44.565Z,54.79
2024-05-09T17:12:16.341Z,54.85
2024-05-09T17:13:48.438Z,54.72
2024-05-09T17:15:20.704Z,54.70
2024-05-09T17:16:52.462Z,54.84
2024-05-09T17:18:24.339Z,54.63
2024-05-09T17:19:56.097Z,55.13
2024-05-09T17:21:27.836Z,54.97
2024-05-09T17:22:59.585Z,55.21
2024-05-09T17:24:31.324Z,55.02
2024-05-09T17:26:03.111Z,55.36
2024-05-09T17:27:34.926Z,54.88
2024-05-09T17:29:09.242Z,54.96
2024-05-09T17:30:43.152Z,55.31
2024-05-09T17:32:15.052Z,55.61
2024-05-09T17:33:47.072Z,55.66
2024-05-09T17:35:19.797Z,55.43
2024-05-09T17:36:51.583Z,55.49
2024-05-09T17:38:23.984Z,55.23
2024-05-09T17:39:55.784Z,55.29
2024-05-09T17:41:27.764Z,55.36
2024-05-09T17:42:59.686Z,55.34
2024-05-09T17:44:31.878Z,55.16
2024-05-09T17:46:03.711Z,55.37
2024-05-09T17:47:36.170Z,55.28
2024-05-09T17:49:08.084Z,55.33
2024-05-09T17:50:41.205Z,55.30
2024-05-09T17:52:13.810Z,55.36
2024-05-09T17:53:47.955Z,55.72
2024-05-09T17:55:20.023Z,55.89
2024-05-09T17:56:51.822Z,55.98
2024-05-09T17:58:23.665Z,56.08
2024-05-09T17:59:55.976Z,55.98
2024-05-09T18:01:27.883Z,55.77
2024-05-09T18:02:59.783Z,55.82
2024-05-09T18:04:33.464Z,55.78
2024-05-09T18:06:05.812Z,55.75
2024-05-09T18:07:37.929Z,55.63
2024-05-09T18:09:09.957Z,55.63
2024-05-09T18:10:42.496Z,55.80
2024-05-09T18:12:14.799Z,55.80
2024-05-09T18:13:49.698Z,55.87
2024-05-09T18:15:21.755Z,55.87
2024-05-09T18:16:53.732Z,56.01
2024-05-09T18:18:25.788Z,56.10
2024-05-09T18:19:57.810Z,55.71
2024-05-09T18:21:29.984Z,55.99
2024-05-09T18:23:02.032Z,56.16
2024-05-09T18:24:34.125Z,56.04
2024-05-09T18:26:06.109Z,56.01
2024-05-09T18:27:37.984Z,55.99
2024-05-09T18:29:10.987Z,55.95
2024-05-09T18:30:43.408Z,56.26
2024-05-09T18:32:15.387Z,56.27
2024-05-09T18:33:47.931Z,56.17
2024-05-09T18:35:20.281Z,56.31
2024-05-09T18:36:52.300Z,56.00
2024-05-09T18:38:27.119Z,56.27
2024-05-09T18:39:59.203Z,56.15
2024-05-09T18:41:31.939Z,56.14
2024-05-09T18:43:05.210Z,56.29
2024-05-09T18:44:38.341Z,56.19
2024-05-09T18:46:10.261Z,56.13
2024-05-09T18:47:42.257Z,56.12
2024-05-09T18:49:14.363Z,56.38
2024-05-09T18:50:46.386Z,56.67
2024-05-09T18:52:18.388Z,56.38
2024-05-09T18:53:52.572Z,56.94
2024-05-09T18:55:24.460Z,56.83
2024-05-09T18:56:56.432Z,57.04
2024-05-09T18:58:28.442Z,57.06
2024-05-09T19:00:00.598Z,57.05
2024-05-09T19:01:32.792Z,57.67
2024-05-09T19:03:06.230Z,57.63
2024-05-09T19:04:38.632Z,57.28
2024-05-09T19:06:10.610Z,57.29
2024-05-09T19:07:43.586Z,57.21
2024-05-09T19:09:15.856Z,57.04
2024-05-09T19:10:47.620Z,57.10
2024-05-09T19:12:19.492Z,56.93
2024-05-09T19:13:51.459Z,56.90
2024-05-09T19:15:23.250Z,56.97
2024-05-09T19:16:55.232Z,56.88
2024-05-09T19:18:27.729Z,56.71
2024-05-09T19:19:59.746Z,56.73
2024-05-09T19:21:31.782Z,56.57
2024-05-09T19:23:04.325Z,56.84
2024-05-09T19:24:36.365Z,56.72
2024-05-09T19:26:08.755Z,56.81
2024-05-09T19:27:41.608Z,56.56
2024-05-09T19:29:13.602Z,56.76
2024-05-09T19:30:45.813Z,56.91
2024-05-09T19:32:17.793Z,56.88
2024-05-09T19:33:49.914Z,57.33
2024-05-09T19:35:21.852Z,56.90
2024-05-09T19:36:53.587Z,56.76
2024-05-09T19:38:25.472Z,56.73
2024-05-09T19:39:57.586Z,57.02
2024-05-09T19:41:29.694Z,56.74
2024-05-09T19:43:02.846Z,56.69
2024-05-09T19:44:35.938Z,56.95
2024-05-09T19:46:08.057Z,56.91
2024-05-09T19:47:40.135Z,56.69
2024-05-09T19:49:12.766Z,56.91
2024-05-09T19:50:46.191Z,56.88
2024-05-09T19:52:18.202Z,56.86
2024-05-09T19:53:51.255Z,56.99
2024-05-09T19:55:22.999Z,56.89
2024-05-09T19:56:55.058Z,56.94
2024-05-09T19:58:27.053Z,57.08
2024-05-09T19:59:59.096Z,57.23
2024-05-09T20:01:31.090Z,56.86
2024-05-09T20:03:03.109Z,57.25
2024-05-09T20:04:35.267Z,57.25
2024-05-09T20:06:07.086Z,57.03
2024-05-09T20:07:38.989Z,57.34
2024-05-09T20:09:10.863Z,57.30
2024-05-09T20:10:42.931Z,56.94
2024-05-09T20:12:14.811Z,57.05
2024-05-09T20:13:46.609Z,57.07
2024-05-09T20:15:18.454Z,56.83
2024-05-09T20:16:50.412Z,57.09
2024-05-09T20:18:22.289Z,56.77
2024-05-09T20:19:55.028Z,57.03
2024-05-09T20:21:27.052Z,56.79
2024-05-09T20:22:58.772Z,56.98
2024-05-09T20:24:30.561Z,57.08
2024-05-09T20:26:02.335Z,57.23
2024-05-09T20:27:34.241Z,57.32
2024-05-09T20:29:06.773Z,57.32
2024-05-09T20:30:39.169Z,57.15
2024-05-09T20:32:11.048Z,57.32
2024-05-09T20:33:43.757Z,57.30
2024-05-09T20:35:17.199Z,57.39
2024-05-09T20:36:49.340Z,57.66
2024-05-09T20:38:21.708Z,57.78
2024-05-09T20:39:53.660Z,57.63
2024-05-09T20:41:25.540Z,57.85
2024-05-09T20:42:57.362Z,58.18
2024-05-09T20:44:29.370Z,57.79
2024-05-09T20:46:01.500Z,58.02
2024-05-09T20:47:33.432Z,57.72
2024-05-09T20:49:05.509Z,57.70
2024-05-09T20:50:40.845Z,57.78
2024-05-09T20:52:14.403Z,58.11
2024-05-09T20:53:46.382Z,57.98
2024-05-09T20:55:18.328Z,58.04
2024-05-09T20:56:50.216Z,58.16
2024-05-09T20:58:22.376Z,58.27
2024-05-09T20:59:54.756Z,58.04
2024-05-09T21:01:26.987Z,58.11
2024-05-09T21:02:58.977Z,58.11
2024-05-09T21:04:31.196Z,57.74
2024-05-09T21:06:03.393Z,58.28
2024-05-09T21:07:35.289Z,58.13
2024-05-09T21:09:06.956Z,58.32
2024-05-09T21:10:39.058Z,58.13
2024-05-09T21:12:11.509Z,58.13
2024-05-09T21:13:43.514Z,57.62
2024-05-09T21:15:15.208Z,58.21
2024-05-09T21:16:47.101Z,57.88
2024-05-09T21:18:19.120Z,57.72
2024-05-09T21:19:50.939Z,58.23
2024-05-09T21:21:22.805Z,58.25
2024-05-09T21:22:54.748Z,58.23
2024-05-09T21:24:26.690Z,58.26
2024-05-09T21:25:58.433Z,57.63
2024-05-09T21:27:30.198Z,57.70
2024-05-09T21:29:02.793Z,57.86
2024-05-09T21:30:41.424Z,58.29
2024-05-09T21:32:14.890Z,58.27
2024-05-09T21:33:46.923Z,57.68
2024-05-09T21:35:19.147Z,57.77
2024-05-09T21:36:51.295Z,58.39
2024-05-09T21:38:23.070Z,58.24
2024-05-09T21:39:55.689Z,58.29
2024-05-09T21:41:27.426Z,58.25
2024-05-09T21:42:59.853Z,57.88
2024-05-09T21:44:31.731Z,58.37
2024-05-09T21:46:03.569Z,58.22
2024-05-09T21:47:35.678Z,58.45
2024-05-09T21:49:07.875Z,58.36
2024-05-09T21:50:42.089Z,58.46
2024-05-09T21:52:14.478Z,58.18
2024-05-09T21:53:46.788Z,58.68
2024-05-09T21:55:19.658Z,58.78
2024-05-09T21:56:51.765Z,58.19
2024-05-09T21:58:23.820Z,58.70
2024-05-09T21:59:55.591Z,58.18
2024-05-09T22:01:28.243Z,58.08
2024-05-09T22:03:00.328Z,57.95
2024-05-09T22:04:32.308Z,57.86
2024-05-09T22:06:04.099Z,57.63
2024-05-09T22:07:36.551Z,58.15
2024-05-09T22:09:08.323Z,58.19
2024-05-09T22:10:40.279Z,58.05
2024-05-09T22:12:12.346Z,58.29
2024-05-09T22:13:44.782Z,58.30
2024-05-09T22:15:16.681Z,58.17
2024-05-09T22:16:48.432Z,58.06
2024-05-09T22:18:20.259Z,58.08
2024-05-09T22:19:53.212Z,57.82
2024-05-09T22:21:25.403Z,58.02
2024-05-09T22:22:57.461Z,58.17
2024-05-09T22:24:29.170Z,57.75
2024-05-09T22:26:00.890Z,58.16
2024-05-09T22:27:32.910Z,57.93
2024-05-09T22:29:05.209Z,57.89
2024-05-09T22:30:39.488Z,57.44
2024-05-09T22:32:12.267Z,57.39
2024-05-09T22:33:47.652Z,58.11
2024-05-09T22:35:19.989Z,57.64
2024-05-09T22:36:51.752Z,58.33
2024-05-09T22:38:23.506Z,58.39
2024-05-09T22:39:55.621Z,57.89
2024-05-09T22:41:27.717Z,57.91
2024-05-09T22:42:59.541Z,58.26
2024-05-09T22:44:31.455Z,58.25
2024-05-09T22:46:03.881Z,58.31
2024-05-09T22:47:35.876Z,58.09
2024-05-09T22:49:07.839Z,58.26
2024-05-09T22:50:40.646Z,58.50
2024-05-09T22:52:12.613Z,57.99
2024-05-09T22:53:44.561Z,57.83
2024-05-09T22:55:16.364Z,58.12
2024-05-09T22:56:48.158Z,58.37
2024-05-09T22:58:21.091Z,58.78
2024-05-09T22:59:53.097Z,58.43
2024-05-09T23:01:26.703Z,58.47
2024-05-09T23:02:59.359Z,58.89
2024-05-09T23:04:31.719Z,59.14
2024-05-09T23:06:05.842Z,58.99
2024-05-09T23:07:37.627Z,59.06
2024-05-09T23:09:10.723Z,58.92
2024-05-09T23:10:44.062Z,59.54
2024-05-09T23:12:19.120Z,59.67
2024-05-09T23:13:51.181Z,59.73
2024-05-09T23:15:23.733Z,59.79
2024-05-09T23:16:55.660Z,59.09
2024-05-09T23:18:27.532Z,59.29
2024-05-09T23:19:59.275Z,59.57
2024-05-09T23:21:31.028Z,59.14
2024-05-09T23:23:02.994Z,59.59
2024-05-09T23:24:35.532Z,59.55
2024-05-09T23:26:07.628Z,59.91
2024-05-09T23:27:39.789Z,59.41
2024-05-09T23:29:11.708Z,58.94
2024-05-09T23:30:43.696Z,59.45
2024-05-09T23:32:15.495Z,58.69
2024-05-09T23:33:47.483Z,58.83
2024-05-09T23:35:19.518Z,58.81
2024-05-09T23:36:51.633Z,58.84
2024-05-09T23:38:24.949Z,58.74
2024-05-09T23:39:57.028Z,59.12
2024-05-09T23:41:29.178Z,58.90
2024-05-09T23:43:01.059Z,59.09
2024-05-09T23:44:32.963Z,58.91
2024-05-09T23:46:04.979Z,58.83
2024-05-09T23:47:37.157Z,58.48
2024-05-09T23:49:11.346Z,58.66
2024-05-09T23:50:43.094Z,58.59
2024-05-09T23:52:15.380Z,58.53
2024-05-09T23:53:47.429Z,58.60
2024-05-09T23:55:19.504Z,59.25
2024-05-09T23:56:51.376Z,59.08
2024-05-09T23:58:23.187Z,59.19
2024-05-09T23:59:55.283Z,59.09
